Time;durP1;ratioP1;P1;durP2;ratioP2;P2;SDS_P1;SDS_P2;PMS_P1;PMS_P2;Temp;Humidity;BMP_temperature;BMP_pressure;BME280_temperature;BME280_humidity;BME280_pressure;Samples;Min_cycle;Max_cycle;Signal;HPM_P1;HPM_P2
2021/03/03 00:02:04;;;;;;;0.28;0.28;;;16.50;67.60;;;;;;4247981;27;20096;-42
2021/03/03 00:04:26;;;;;;;;;;;16.50;67.80;;;;;;4249119;27;20047;-42
2021/03/03 00:06:46;;;;;;;;;;;16.60;67.40;;;;;;4244348;27;19981;-42
2021/03/03 00:09:08;;;;;;;0.57;0.57;;;16.80;66.60;;;;;;4246314;27;19923;-43
2021/03/03 00:11:28;;;;;;;0.05;0.05;;;16.90;66.00;;;;;;4248579;27;20047;-42
2021/03/03 00:13:50;;;;;;;0.60;0.60;;;17.00;65.50;;;;;;4248514;27;20066;-42
2021/03/03 00:16:10;;;;;;;0.00;0.00;;;17.00;65.30;;;;;;4248452;27;20170;-42
2021/03/03 00:18:32;;;;;;;;;;;17.00;65.20;;;;;;4246172;27;20111;-42
2021/03/03 00:20:53;;;;;;;0.32;0.32;;;16.90;65.20;;;;;;4248487;27;19931;-42
2021/03/03 00:23:14;;;;;;;0.10;0.10;;;16.90;65.40;;;;;;4248508;27;20446;-43
2021/03/03 00:25:35;;;;;;;0.35;0.35;;;16.80;65.60;;;;;;4246701;27;20249;-43
2021/03/03 00:27:56;;;;;;;0.28;0.28;;;16.80;65.80;;;;;;4242881;27;20557;-44
2021/03/03 00:30:18;;;;;;;0.55;0.55;;;16.80;65.90;;;;;;4248261;27;20104;-49
2021/03/03 00:32:39;;;;;;;0.63;0.63;;;16.70;65.90;;;;;;4248161;27;20090;-43
2021/03/03 00:35:00;;;;;;;0.15;0.15;;;16.70;65.90;;;;;;4248183;27;20063;-42
2021/03/03 00:37:22;;;;;;;0.30;0.30;;;16.70;66.90;;;;;;4238023;27;20550;-43
2021/03/03 00:39:43;;;;;;;0.45;0.45;;;16.70;66.10;;;;;;4248174;27;20062;-44
2021/03/03 00:42:04;;;;;;;0.32;0.32;;;16.70;66.00;;;;;;4243079;27;20103;-42
2021/03/03 00:44:28;;;;;;;1.30;1.30;;;16.70;65.90;;;;;;4215964;28;20544;-43
2021/03/03 00:46:49;;;;;;;0.47;0.47;;;16.70;65.90;;;;;;4234655;27;20062;-43
2021/03/03 00:49:11;;;;;;;0.17;0.17;;;16.70;65.90;;;;;;4232367;27;20047;-42
2021/03/03 00:51:32;;;;;;;0.60;0.60;;;16.60;65.80;;;;;;4247958;27;20058;-42
2021/03/03 00:53:54;;;;;;;0.63;0.60;;;16.70;65.70;;;;;;4232159;27;20085;-42
2021/03/03 00:56:15;;;;;;;0.80;0.80;;;16.70;65.50;;;;;;4198579;28;20083;-42
2021/03/03 00:58:36;;;;;;;0.85;0.70;;;16.70;65.50;;;;;;4213975;28;20125;-42
2021/03/03 01:00:58;;;;;;;0.22;0.22;;;16.60;65.60;;;;;;4214023;28;20055;-42
2021/03/03 01:03:22;;;;;;;0.40;0.40;;;16.60;65.80;;;;;;4198515;28;20122;-44
2021/03/03 01:05:47;;;;;;;0.00;0.00;;;16.50;65.90;;;;;;4228985;27;20130;-42
2021/03/03 01:08:10;;;;;;;0.20;0.20;;;16.50;66.10;;;;;;4203221;28;20052;-42
2021/03/03 01:10:35;;;;;;;0.75;0.75;;;16.40;66.30;;;;;;4215107;28;20145;-44
2021/03/03 01:12:56;;;;;;;1.08;1.08;;;16.40;66.50;;;;;;4215155;28;20127;-42
2021/03/03 01:15:18;;;;;;;0.63;0.63;;;16.30;66.70;;;;;;4227960;27;20062;-42
2021/03/03 01:17:41;;;;;;;8.15;1.55;;;16.30;66.80;;;;;;4218253;28;20402;-42
2021/03/03 01:20:03;;;;;;;0.00;0.00;;;16.20;67.00;;;;;;4230714;28;20051;-42
2021/03/03 01:22:24;;;;;;;0.30;0.30;;;16.20;67.10;;;;;;4230480;28;20520;-42
2021/03/03 01:24:45;;;;;;;0.22;0.22;;;16.30;66.80;;;;;;4238745;27;20125;-43
2021/03/03 01:27:07;;;;;;;0.08;0.08;;;16.50;65.90;;;;;;4220453;28;20129;-42
2021/03/03 01:29:28;;;;;;;0.57;0.57;;;16.70;65.30;;;;;;4230447;28;20130;-42
2021/03/03 01:31:51;;;;;;;0.10;0.10;;;16.70;64.80;;;;;;4230210;28;20051;-42
2021/03/03 01:34:13;;;;;;;;;;;16.80;64.50;;;;;;4236955;27;20035;-42
2021/03/03 01:36:34;;;;;;;0.47;0.47;;;16.80;64.40;;;;;;4246518;27;19931;-42
2021/03/03 01:38:54;;;;;;;0.38;0.38;;;16.70;64.40;;;;;;4247104;27;20062;-42
2021/03/03 01:41:15;;;;;;;0.55;0.55;;;16.70;64.50;;;;;;4242626;27;20047;-43
2021/03/03 01:43:37;;;;;;;0.45;0.45;;;16.70;64.70;;;;;;4230850;27;20057;-43
2021/03/03 01:46:01;;;;;;;0.00;0.00;;;16.60;64.80;;;;;;4242605;27;20127;-44
2021/03/03 01:48:22;;;;;;;0.32;0.32;;;16.50;65.00;;;;;;4230102;28;20055;-49
2021/03/03 01:50:44;;;;;;;0.28;0.28;;;16.40;65.30;;;;;;4230212;28;20063;-42
2021/03/03 01:53:06;;;;;;;0.32;0.32;;;16.40;65.60;;;;;;4229747;28;20067;-42
2021/03/03 01:55:27;;;;;;;0.22;0.22;;;16.30;65.90;;;;;;4212936;28;20055;-46
2021/03/03 01:57:49;;;;;;;1.05;0.55;;;16.20;66.10;;;;;;4212148;28;20407;-47
2021/03/03 02:00:12;;;;;;;0.10;0.10;;;16.20;66.30;;;;;;4197656;28;20055;-45
2021/03/03 02:02:34;;;;;;;2.25;2.15;;;16.10;66.50;;;;;;4212985;28;20510;-46
2021/03/03 02:04:55;;;;;;;;;;;16.20;66.50;;;;;;4242177;27;20132;-47
2021/03/03 02:07:22;;;;;;;2.03;1.20;;;16.30;66.10;;;;;;4244852;27;19923;-51
2021/03/03 02:09:49;;;;;;;2.10;1.50;;;16.30;65.80;;;;;;4246671;27;20558;-45
2021/03/03 02:12:16;;;;;;;0.38;0.38;;;16.40;65.80;;;;;;4244982;27;20062;-44
2021/03/03 02:14:41;;;;;;;2.42;0.80;;;16.30;65.80;;;;;;4246620;27;20497;-43
2021/03/03 02:17:03;;;;;;;0.10;0.10;;;16.30;65.80;;;;;;4231513;27;20089;-46
2021/03/03 02:19:29;;;;;;;0.10;0.10;;;16.30;65.90;;;;;;4229659;28;20051;-47
2021/03/03 02:21:59;;;;;;;0.10;0.10;;;16.20;66.00;;;;;;4230649;27;20056;-46
2021/03/03 02:24:24;;;;;;;0.90;0.90;;;16.20;66.20;;;;;;4229612;28;20086;-46
2021/03/03 02:26:50;;;;;;;0.40;0.40;;;16.10;66.30;;;;;;4243294;27;20051;-43
2021/03/03 02:29:13;;;;;;;0.25;0.25;;;16.10;66.50;;;;;;4237159;27;20062;-42
2021/03/03 02:31:35;;;;;;;0.00;0.00;;;16.00;66.70;;;;;;4212584;28;20052;-41
2021/03/03 02:33:58;;;;;;;2.22;1.33;;;16.00;67.80;;;;;;4212562;28;20090;-43
2021/03/03 02:36:22;;;;;;;0.63;0.63;;;16.00;67.00;;;;;;4232974;27;20063;-42
2021/03/03 02:38:44;;;;;;;0.68;0.68;;;16.00;66.60;;;;;;4246133;27;20082;-42
2021/03/03 02:41:08;;;;;;;0.10;0.10;;;16.10;66.20;;;;;;4236815;27;20058;-42
2021/03/03 02:43:33;;;;;;;0.20;0.20;;;16.20;66.00;;;;;;4229292;28;20055;-42
2021/03/03 02:45:54;;;;;;;0.00;0.00;;;16.20;65.90;;;;;;4237935;27;20058;-42
2021/03/03 02:48:16;;;;;;;0.50;0.50;;;16.10;65.80;;;;;;4246089;27;20108;-44
2021/03/03 02:50:37;;;;;;;0.90;0.65;;;16.10;65.90;;;;;;4244773;27;20118;-42
2021/03/03 02:52:59;;;;;;;0.10;0.10;;;16.10;66.00;;;;;;4211923;28;20121;-42
2021/03/03 02:55:20;;;;;;;;;;;16.10;65.90;;;;;;4227802;27;20444;-42
2021/03/03 02:57:42;;;;;;;0.40;0.40;;;16.10;65.90;;;;;;4229110;28;20387;-43
2021/03/03 03:00:05;;;;;;;0.68;0.47;;;16.10;66.00;;;;;;4229079;28;20051;-42
2021/03/03 03:02:26;;;;;;;1.15;0.82;;;16.00;66.00;;;;;;4230145;28;20054;-42
2021/03/03 03:04:47;;;;;;;;;;;16.00;66.20;;;;;;4231202;28;20459;-43
2021/03/03 03:07:12;;;;;;;0.20;0.20;;;15.90;66.30;;;;;;4245951;28;19934;-42
2021/03/03 03:09:34;;;;;;;0.30;0.30;;;15.90;66.50;;;;;;4247415;27;20452;-42
2021/03/03 03:11:56;;;;;;;1.27;1.20;;;15.90;66.60;;;;;;4242053;27;20089;-42
2021/03/03 03:14:20;;;;;;;0.63;0.63;;;15.80;66.60;;;;;;4216790;28;20121;-42
2021/03/03 03:16:44;;;;;;;0.00;0.00;;;15.70;66.70;;;;;;4247009;27;20054;-40
2021/03/03 03:19:09;;;;;;;1.20;1.15;;;15.80;66.90;;;;;;4249415;27;20068;-43
2021/03/03 03:21:31;;;;;;;2.08;1.23;;;15.70;67.00;;;;;;4248542;27;20047;-43
2021/03/03 03:23:54;;;;;;;0.00;0.00;;;15.60;67.10;;;;;;4249501;27;20467;-43
2021/03/03 03:26:17;;;;;;;0.70;0.70;;;15.60;67.20;;;;;;4249245;27;20047;-44
2021/03/03 03:28:38;;;;;;;0.45;0.45;;;15.60;67.40;;;;;;4249263;27;20553;-43
2021/03/03 03:31:01;;;;;;;0.10;0.10;;;15.60;67.50;;;;;;4238937;27;20123;-43
2021/03/03 03:33:23;;;;;;;0.25;0.25;;;15.70;67.00;;;;;;4219194;28;20056;-44
2021/03/03 03:35:44;;;;;;;0.00;0.00;;;15.80;66.30;;;;;;4232029;28;20101;-43
2021/03/03 03:38:08;;;;;;;0.40;0.40;;;15.90;65.90;;;;;;4232142;28;20132;-43
2021/03/03 03:40:31;;;;;;;0.55;0.55;;;15.90;65.60;;;;;;4238230;27;20100;-43
2021/03/03 03:42:56;;;;;;;1.75;0.70;;;16.00;65.60;;;;;;4249013;27;20055;-43
2021/03/03 03:45:17;;;;;;;0.10;0.10;;;15.90;65.60;;;;;;4248945;27;20108;-43
2021/03/03 03:47:40;;;;;;;0.00;0.00;;;15.90;66.60;;;;;;4249025;27;20489;-44
2021/03/03 03:50:03;;;;;;;0.55;0.47;;;15.80;65.80;;;;;;4241101;27;20187;-44
2021/03/03 03:52:24;;;;;;;0.35;0.35;;;15.80;66.00;;;;;;4233223;27;20075;-43
2021/03/03 03:54:50;;;;;;;1.85;1.55;;;15.70;66.10;;;;;;4248196;27;20074;-43
2021/03/03 03:57:11;;;;;;;0.28;0.28;;;15.70;66.30;;;;;;4231691;28;20048;-43
2021/03/03 03:59:32;;;;;;;0.55;0.55;;;15.60;66.40;;;;;;4231869;27;20048;-49
2021/03/03 04:01:52;;;;;;;3.80;0.63;;;15.60;66.60;;;;;;4244581;27;20055;-44
2021/03/03 04:04:14;;;;;;;0.00;0.00;;;15.60;66.80;;;;;;4248847;27;20051;-45
2021/03/03 04:06:36;;;;;;;0.57;0.57;;;15.50;66.80;;;;;;4248774;27;20063;-50
2021/03/03 04:08:57;;;;;;;0.30;0.30;;;15.50;67.00;;;;;;4245985;27;20567;-48
2021/03/03 04:11:17;;;;;;;0.28;0.28;;;15.60;66.80;;;;;;4244838;27;20089;-43
2021/03/03 04:13:38;;;;;;;0.25;0.25;;;15.60;66.40;;;;;;4248536;27;20454;-43
2021/03/03 04:15:59;;;;;;;2.63;0.83;;;15.80;66.10;;;;;;4248570;27;20051;-44
2021/03/03 04:18:20;;;;;;;1.13;0.40;;;15.70;65.90;;;;;;4232861;27;20795;-43
2021/03/03 04:20:41;;;;;;;0.98;0.98;;;15.80;65.90;;;;;;4235820;27;20078;-43
2021/03/03 04:23:04;;;;;;;0.47;0.47;;;15.80;65.70;;;;;;4231487;28;20135;-45
2021/03/03 04:25:25;;;;;;;0.57;0.57;;;15.80;65.50;;;;;;4238153;27;20130;-43
2021/03/03 04:27:46;;;;;;;0.17;0.17;;;15.80;65.50;;;;;;4237699;27;20055;-45
2021/03/03 04:30:09;;;;;;;1.17;1.08;;;15.80;65.60;;;;;;4237586;27;20072;-44
2021/03/03 04:32:30;;;;;;;0.10;0.10;;;15.80;65.50;;;;;;4248347;27;20058;-44
2021/03/03 04:34:51;;;;;;;0.10;0.10;;;15.80;65.40;;;;;;4248284;27;20497;-43
2021/03/03 04:37:12;;;;;;;0.60;0.60;;;15.80;65.40;;;;;;4247875;27;20516;-43
2021/03/03 04:39:34;;;;;;;0.43;0.43;;;15.90;65.10;;;;;;4230476;27;20464;-43
2021/03/03 04:41:55;;;;;;;0.05;0.05;;;15.90;64.70;;;;;;4230968;28;20059;-44
2021/03/03 04:44:15;;;;;;;1.13;1.13;;;16.00;64.60;;;;;;4231206;28;20051;-43
2021/03/03 04:46:36;;;;;;;0.00;0.00;;;16.00;64.40;;;;;;4234908;27;20041;-44
2021/03/03 04:48:57;;;;;;;0.32;0.32;;;16.00;64.40;;;;;;4246269;27;20039;-45
2021/03/03 04:51:18;;;;;;;0.80;0.80;;;16.00;64.60;;;;;;4230998;28;20501;-45
2021/03/03 04:53:39;;;;;;;0.73;0.73;;;15.90;64.80;;;;;;4230899;28;20695;-43
2021/03/03 04:56:01;;;;;;;0.13;0.13;;;15.80;64.90;;;;;;4245054;27;20137;-43
2021/03/03 04:58:22;;;;;;;1.00;1.00;;;15.70;65.10;;;;;;4247807;27;20055;-45
2021/03/03 05:00:43;;;;;;;0.00;0.00;;;15.70;65.40;;;;;;4231519;27;20044;-43
2021/03/03 05:03:21;;;;;;;1.55;0.77;;;15.60;65.60;;;;;;4230788;28;20047;-48
2021/03/03 05:05:42;;;;;;;0.38;0.38;;;15.70;65.60;;;;;;4230852;28;20055;-44
2021/03/03 05:08:03;;;;;;;0.52;0.32;;;15.80;65.20;;;;;;4247689;27;20055;-43
2021/03/03 05:10:24;;;;;;;1.20;1.20;;;15.90;64.80;;;;;;4240938;27;20051;-44
2021/03/03 05:12:45;;;;;;;0.25;0.25;;;15.90;64.50;;;;;;4247673;27;20092;-43
2021/03/03 05:15:07;;;;;;;0.05;0.05;;;15.90;64.50;;;;;;4232113;27;20083;-45
2021/03/03 05:17:28;;;;;;;0.20;0.20;;;15.90;64.50;;;;;;4247563;27;20058;-43
2021/03/03 05:19:49;;;;;;;0.93;0.93;;;15.80;64.60;;;;;;4237039;27;20047;-43
2021/03/03 05:22:10;;;;;;;0.57;0.57;;;15.80;64.80;;;;;;4230540;28;20105;-43
2021/03/03 05:24:31;;;;;;;0.00;0.00;;;15.70;64.90;;;;;;4230365;28;20536;-45
2021/03/03 05:26:52;;;;;;;0.38;0.38;;;15.70;65.20;;;;;;4242061;27;20144;-44
2021/03/03 05:29:13;;;;;;;0.03;0.03;;;15.60;65.40;;;;;;4242196;27;20542;-43
2021/03/03 05:31:35;;;;;;;;;;;15.50;65.60;;;;;;4230840;28;20297;-43
2021/03/03 05:33:57;;;;;;;;;;;15.50;65.60;;;;;;4229734;28;19924;-44
2021/03/03 05:36:18;;;;;;;0.00;0.00;;;15.50;65.70;;;;;;4230275;28;19930;-44
2021/03/03 05:38:43;;;;;;;0.00;0.00;;;15.50;65.70;;;;;;4230320;28;20052;-45
2021/03/03 05:41:04;;;;;;;0.22;0.22;;;15.50;65.90;;;;;;4231567;27;20051;-43
2021/03/03 05:43:30;;;;;;;0.10;0.10;;;15.50;66.00;;;;;;4230034;28;20557;-43
2021/03/03 05:45:53;;;;;;;1.15;1.15;;;15.50;65.90;;;;;;4235238;27;20054;-44
2021/03/03 05:48:19;;;;;;;0.80;0.80;;;15.50;65.80;;;;;;4245237;27;20067;-43
2021/03/03 05:50:42;;;;;;;0.00;0.00;;;15.50;65.80;;;;;;4230123;28;20425;-48
2021/03/03 05:53:07;;;;;;;0.30;0.30;;;15.70;65.50;;;;;;4229732;28;20570;-49
2021/03/03 05:55:30;;;;;;;0.55;0.55;;;15.90;64.60;;;;;;4241106;27;20550;-43
2021/03/03 05:57:52;;;;;;;0.28;0.28;;;16.00;64.00;;;;;;4246867;27;20446;-44
2021/03/03 06:00:14;;;;;;;1.20;1.05;;;16.10;63.70;;;;;;4213126;28;20209;-43
2021/03/03 06:02:37;;;;;;;0.00;0.00;;;16.20;63.40;;;;;;4212882;28;20052;-43
2021/03/03 06:04:59;;;;;;;0.55;0.55;;;16.20;63.00;;;;;;4215970;27;20078;-43
2021/03/03 06:07:21;;;;;;;8.07;0.95;;;16.30;62.70;;;;;;4246666;27;20417;-43
2021/03/03 06:09:42;;;;;;;0.28;0.28;;;16.30;62.50;;;;;;4230967;27;20405;-42
2021/03/03 06:12:03;;;;;;;0.38;0.38;;;16.30;62.50;;;;;;4229802;28;20047;-44
2021/03/03 06:14:24;;;;;;;0.73;0.73;;;16.30;62.70;;;;;;4229649;28;20060;-43
2021/03/03 06:16:46;;;;;;;0.57;0.57;;;16.20;62.90;;;;;;4229672;28;20066;-43
2021/03/03 06:19:08;;;;;;;0.10;0.10;;;16.20;63.20;;;;;;4239260;27;20062;-41
2021/03/03 06:21:30;;;;;;;0.55;0.55;;;16.20;64.40;;;;;;4246597;27;20051;-50
2021/03/03 06:23:59;;;;;;;46.58;2.22;;;16.20;64.30;;;;;;4246611;27;20054;-43
2021/03/03 06:26:20;;;;;;;0.15;0.15;;;16.20;64.50;;;;;;4234958;27;20505;-42
2021/03/03 06:28:42;;;;;;;;;;;16.10;64.40;;;;;;4239260;27;20513;-43
2021/03/03 06:31:24;;;;;;;1.88;0.55;;;16.10;64.60;;;;;;4226289;27;19919;-44
2021/03/03 06:33:45;;;;;;;0.57;0.57;;;16.00;64.60;;;;;;4212713;28;20056;-43
2021/03/03 06:36:20;;;;;;;14.80;3.30;;;16.00;64.40;;;;;;4221601;28;20441;-42
2021/03/03 06:38:41;;;;;;;0.45;0.45;;;16.00;64.40;;;;;;4212565;28;20080;-42
2021/03/03 06:41:06;;;;;;;1.13;1.13;;;16.00;64.30;;;;;;4212831;28;20063;-43
2021/03/03 06:43:31;;;;;;;0.52;0.52;;;16.10;63.90;;;;;;4229364;28;20048;-43
2021/03/03 06:45:54;;;;;;;5.07;1.23;;;16.20;63.70;;;;;;4232961;27;20109;-48
2021/03/03 06:48:37;;;;;;;0.20;0.20;;;16.20;63.50;;;;;;4212386;28;20052;-42
2021/03/03 06:50:58;;;;;;;;;;;16.20;63.50;;;;;;4224722;28;20070;-40
2021/03/03 06:53:31;;;;;;;0.05;0.05;;;16.10;63.80;;;;;;4231733;27;19934;-42
2021/03/03 06:55:55;;;;;;;0.75;0.75;;;16.10;64.40;;;;;;4213443;28;20123;-43
2021/03/03 06:58:26;;;;;;;0.70;0.70;;;16.10;64.30;;;;;;4229369;28;20512;-42
2021/03/03 07:00:48;;;;;;;0.95;0.95;;;16.10;64.30;;;;;;4240398;28;20035;-43
2021/03/03 07:03:26;;;;;;;0.00;0.00;;;16.00;64.30;;;;;;4214604;28;20599;-42
2021/03/03 07:05:48;;;;;;;0.10;0.10;;;16.00;64.30;;;;;;4228719;28;20062;-43
2021/03/03 07:08:08;;;;;;;0.80;0.60;;;16.00;64.40;;;;;;4229132;28;20052;-42
2021/03/03 07:10:32;;;;;;;0.10;0.10;;;15.90;64.60;;;;;;4228791;28;20055;-42
2021/03/03 07:12:53;;;;;;;0.40;0.40;;;15.90;64.80;;;;;;4229053;28;20051;-42
2021/03/03 07:15:15;;;;;;;0.10;0.10;;;15.80;64.70;;;;;;4229387;28;20059;-46
2021/03/03 07:17:37;;;;;;;0.00;0.00;;;15.90;64.80;;;;;;4245045;28;20059;-42
2021/03/03 07:20:01;;;;;;;0.65;0.65;;;15.80;64.70;;;;;;4245907;28;20502;-43
2021/03/03 07:22:40;;;;;;;0.13;0.13;;;15.80;64.80;;;;;;4246169;28;20047;-42
2021/03/03 07:25:03;;;;;;;0.10;0.10;;;15.70;65.00;;;;;;4245748;28;20574;-43
2021/03/03 07:27:25;;;;;;;0.00;0.00;;;15.70;65.10;;;;;;4245852;28;20100;-42
2021/03/03 07:29:49;;;;;;;0.40;0.40;;;15.70;65.00;;;;;;4245899;28;20054;-43
2021/03/03 07:32:13;;;;;;;1.27;1.27;;;15.80;64.50;;;;;;4232824;28;20044;-42
2021/03/03 07:34:35;;;;;;;0.25;0.25;;;16.00;64.10;;;;;;4228859;28;20056;-43
2021/03/03 07:36:58;;;;;;;0.50;0.50;;;16.10;63.90;;;;;;4228835;28;20052;-43
2021/03/03 07:39:24;;;;;;;1.40;1.40;;;16.10;63.70;;;;;;4228855;28;20059;-47
2021/03/03 07:41:47;;;;;;;0.20;0.20;;;16.10;63.70;;;;;;4228739;28;20717;-42
2021/03/03 07:44:16;;;;;;;0.45;0.43;;;16.10;64.00;;;;;;4228823;28;20565;-43
2021/03/03 07:46:39;;;;;;;32.80;2.85;;;16.00;64.00;;;;;;4213143;28;20059;-42
2021/03/03 07:49:00;;;;;;;0.20;0.20;;;16.10;64.10;;;;;;4228752;28;20135;-43
2021/03/03 07:51:21;;;;;;;;;;;16.00;64.10;;;;;;4235400;28;20047;-43
2021/03/03 07:53:44;;;;;;;1.30;0.85;;;16.00;64.20;;;;;;4229642;28;19946;-42
2021/03/03 07:56:07;;;;;;;0.57;0.57;;;16.00;64.70;;;;;;4229085;28;20112;-42
2021/03/03 07:58:29;;;;;;;0.40;0.40;;;16.00;64.60;;;;;;4231492;28;20072;-42
2021/03/03 08:00:52;;;;;;;0.22;0.22;;;16.00;64.60;;;;;;4231669;28;20126;-44
2021/03/03 08:03:13;;;;;;;1.40;1.30;;;16.00;64.60;;;;;;4231652;28;20122;-42
2021/03/03 08:05:45;;;;;;;0.38;0.38;;;15.90;64.50;;;;;;4231745;28;20060;-42
2021/03/03 08:08:26;;;;;;;0.10;0.10;;;15.80;64.70;;;;;;4231775;28;20062;-42
2021/03/03 08:10:47;;;;;;;0.25;0.25;;;15.80;64.80;;;;;;4231583;28;20438;-43
2021/03/03 08:13:11;;;;;;;1.70;1.05;;;15.70;64.90;;;;;;4238440;27;20127;-44
2021/03/03 08:15:56;;;;;;;16.25;4.00;;;15.70;65.20;;;;;;4248556;27;20047;-43
2021/03/03 08:18:19;;;;;;;1.13;1.05;;;15.70;65.40;;;;;;4248427;27;20111;-42
2021/03/03 08:20:42;;;;;;;0.52;0.52;;;15.70;65.30;;;;;;4248396;27;20050;-43
2021/03/03 08:23:07;;;;;;;0.32;0.32;;;15.80;65.00;;;;;;4248202;27;20155;-42
2021/03/03 08:25:47;;;;;;;0.98;0.98;;;15.80;65.70;;;;;;4243486;27;20046;-42
2021/03/03 08:28:32;;;;;;;0.17;0.17;;;15.80;64.70;;;;;;4231358;28;20058;-42
2021/03/03 08:31:31;;;;;;;1.15;1.08;;;15.80;64.50;;;;;;4231188;27;20497;-42
2021/03/03 08:33:58;;;;;;;0.30;0.30;;;15.90;64.50;;;;;;4231863;27;20544;-42
2021/03/03 08:37:01;;;;;;;0.35;0.35;;;15.80;64.30;;;;;;4232243;27;20047;-46
2021/03/03 08:39:33;;;;;;;1.10;0.80;;;15.80;64.30;;;;;;4231282;28;20063;-45
2021/03/03 08:41:54;;;;;;;2.17;2.08;;;15.80;64.40;;;;;;4231291;28;20493;-43
2021/03/03 08:44:17;;;;;;;4.20;1.23;;;15.70;64.50;;;;;;4232271;27;20059;-41
2021/03/03 08:46:46;;;;;;;0.88;0.88;;;15.70;64.60;;;;;;4242193;27;20075;-42
2021/03/03 08:49:31;;;;;;;0.10;0.10;;;15.60;64.60;;;;;;4231483;28;20416;-42
2021/03/03 08:52:06;;;;;;;1.02;1.02;;;15.70;64.70;;;;;;4227812;28;20056;-42
2021/03/03 08:54:41;;;;;;;1.02;0.98;;;15.70;64.50;;;;;;4241450;27;20059;-40
2021/03/03 08:57:03;;;;;;;0.25;0.25;;;15.70;64.40;;;;;;4232180;27;20074;-40
2021/03/03 08:59:40;;;;;;;2.60;2.42;;;15.60;64.30;;;;;;4247871;27;20051;-41
2021/03/03 09:02:05;;;;;;;1.55;1.30;;;15.60;64.30;;;;;;4235006;27;20044;-40
2021/03/03 09:04:29;;;;;;;2.70;2.50;;;15.60;64.30;;;;;;4224408;28;20079;-40
2021/03/03 09:06:51;;;;;;;8.23;2.03;;;15.70;64.20;;;;;;4230355;28;20079;-40
2021/03/03 09:09:12;;;;;;;0.57;0.57;;;15.90;63.50;;;;;;4230693;28;20055;-40
2021/03/03 09:11:33;;;;;;;1.23;1.23;;;16.10;62.70;;;;;;4230659;28;20056;-42
2021/03/03 09:13:55;;;;;;;;;;;16.10;62.10;;;;;;4231086;28;20083;-41
2021/03/03 09:16:16;;;;;;;0.73;0.73;;;16.20;61.90;;;;;;4230568;28;19919;-41
2021/03/03 09:18:39;;;;;;;0.22;0.22;;;16.20;62.00;;;;;;4230521;28;20092;-40
2021/03/03 09:21:12;;;;;;;1.38;1.38;;;16.20;62.00;;;;;;4230576;28;20059;-41
2021/03/03 09:23:34;;;;;;;0.98;0.98;;;16.20;61.80;;;;;;4215156;28;20560;-45
2021/03/03 09:25:55;;;;;;;1.52;1.30;;;16.20;61.80;;;;;;4230494;28;20446;-42
2021/03/03 09:28:16;;;;;;;1.92;1.83;;;16.20;61.70;;;;;;4230462;28;20659;-41
2021/03/03 09:30:39;;;;;;;2.15;1.75;;;16.20;61.70;;;;;;4230693;27;20101;-41
2021/03/03 09:33:06;;;;;;;0.65;0.65;;;16.10;62.50;;;;;;4238864;27;20073;-41
2021/03/03 09:35:28;;;;;;;0.38;0.38;;;16.10;61.50;;;;;;4230274;28;20054;-41
2021/03/03 09:37:49;;;;;;;3.35;3.10;;;16.10;61.60;;;;;;4230070;28;20096;-42
2021/03/03 09:40:13;;;;;;;1.50;1.40;;;16.10;61.50;;;;;;4230194;28;20047;-41
2021/03/03 09:42:40;;;;;;;1.65;1.38;;;16.10;61.80;;;;;;4230239;28;20657;-47
2021/03/03 09:45:01;;;;;;;0.52;0.52;;;16.20;61.80;;;;;;4230259;28;20521;-45
2021/03/03 09:47:28;;;;;;;0.32;0.32;;;16.20;61.80;;;;;;4230102;28;20066;-47
2021/03/03 09:49:53;;;;;;;2.78;0.77;;;16.20;61.70;;;;;;4229974;28;20494;-46
2021/03/03 09:52:13;;;;;;;1.40;1.40;;;16.20;61.80;;;;;;4230097;28;20048;-46
2021/03/03 09:54:37;;;;;;;0.82;0.82;;;16.10;62.10;;;;;;4214357;28;20089;-41
2021/03/03 09:57:07;;;;;;;0.35;0.35;;;16.10;62.40;;;;;;4229640;28;20425;-41
2021/03/03 09:59:30;;;;;;;1.83;1.13;;;16.20;62.70;;;;;;4229995;28;20387;-41
2021/03/03 10:01:50;;;;;;;1.60;1.42;;;16.30;62.10;;;;;;4229840;28;20051;-41
2021/03/03 10:04:12;;;;;;;0.68;0.68;;;16.30;62.00;;;;;;4229707;28;20589;-41
2021/03/03 10:06:33;;;;;;;2.42;2.30;;;16.40;61.70;;;;;;4214273;28;20059;-41
2021/03/03 10:08:54;;;;;;;0.30;0.30;;;16.40;61.50;;;;;;4229701;28;20058;-41
2021/03/03 10:11:16;;;;;;;10.63;2.92;;;16.50;61.50;;;;;;4229862;28;20410;-41
2021/03/03 10:13:41;;;;;;;3.95;2.10;;;16.40;61.60;;;;;;4230717;27;20494;-40
2021/03/03 10:16:14;;;;;;;0.10;0.10;;;16.40;61.70;;;;;;4241904;27;20054;-41
2021/03/03 10:18:37;;;;;;;0.57;0.57;;;16.40;61.80;;;;;;4246338;27;20090;-41
2021/03/03 10:20:59;;;;;;;7.57;3.00;;;16.40;62.10;;;;;;4246367;27;20055;-41
2021/03/03 10:23:22;;;;;;;0.98;0.98;;;16.40;62.40;;;;;;4246538;27;20546;-42
2021/03/03 10:25:45;;;;;;;0.52;0.52;;;16.30;62.60;;;;;;4246554;27;20074;-41
2021/03/03 10:28:10;;;;;;;1.17;1.15;;;16.20;62.90;;;;;;4246374;27;20066;-41
2021/03/03 10:30:32;;;;;;;1.45;1.45;;;16.20;63.10;;;;;;4246496;27;20150;-43
2021/03/03 10:32:53;;;;;;;2.25;1.25;;;16.20;63.30;;;;;;4239246;27;20043;-41
2021/03/03 10:35:16;;;;;;;19.92;2.72;;;16.10;63.50;;;;;;4240399;27;20074;-41
2021/03/03 10:37:37;;;;;;;4.03;2.95;;;16.10;63.70;;;;;;4246220;27;20365;-41
2021/03/03 10:39:58;;;;;;;3.13;2.90;;;16.00;64.00;;;;;;4230732;27;20097;-42
2021/03/03 10:42:24;;;;;;;0.52;0.52;;;16.00;64.10;;;;;;4246233;27;20509;-41
2021/03/03 10:44:49;;;;;;;0.43;0.43;;;16.00;64.20;;;;;;4246262;27;20054;-43
2021/03/03 10:47:10;;;;;;;2.08;1.98;;;16.10;64.60;;;;;;4246216;27;20053;-42
2021/03/03 10:49:32;;;;;;;0.68;0.68;;;16.10;64.60;;;;;;4246283;27;20082;-41
2021/03/03 10:51:53;;;;;;;1.13;1.13;;;16.10;64.60;;;;;;4245501;27;20537;-41
2021/03/03 10:54:33;;;;;;;0.50;0.50;;;16.00;65.50;;;;;;4229059;28;20055;-41
2021/03/03 10:57:04;;;;;;;2.60;0.90;;;16.00;65.80;;;;;;4231562;28;20062;-42
2021/03/03 10:59:27;;;;;;;0.43;0.43;;;16.00;65.90;;;;;;4213537;28;20048;-42
2021/03/03 11:01:52;;;;;;;4.05;2.25;;;16.00;65.90;;;;;;4229129;28;20054;-41
2021/03/03 11:04:14;;;;;;;0.90;0.90;;;15.90;66.20;;;;;;4229123;28;20048;-43
2021/03/03 11:06:35;;;;;;;1.50;1.33;;;15.90;66.20;;;;;;4228433;28;20044;-44
2021/03/03 11:08:56;;;;;;;0.65;0.65;;;16.00;66.00;;;;;;4227998;28;20096;-41
2021/03/03 11:11:17;;;;;;;;;;;16.10;65.80;;;;;;4229342;28;20050;-39
2021/03/03 11:13:38;;;;;;;3.13;2.90;;;16.20;66.80;;;;;;4227756;28;20335;-41
2021/03/03 11:15:59;;;;;;;0.57;0.57;;;16.20;67.00;;;;;;4229738;28;20043;-44
2021/03/03 11:18:21;;;;;;;1.00;0.43;;;16.20;66.80;;;;;;4229015;28;20048;-42
2021/03/03 11:20:42;;;;;;;1.75;1.52;;;16.20;66.70;;;;;;4228945;28;20090;-43
2021/03/03 11:23:04;;;;;;;1.00;1.00;;;16.20;66.40;;;;;;4228869;28;20079;-41
2021/03/03 11:25:25;;;;;;;3.53;2.08;;;16.20;66.60;;;;;;4212118;28;20062;-41
2021/03/03 11:27:46;;;;;;;0.30;0.30;;;16.10;66.60;;;;;;4212103;28;20589;-41
2021/03/03 11:30:08;;;;;;;1.98;1.85;;;16.10;66.80;;;;;;4212541;28;20051;-41
2021/03/03 11:32:29;;;;;;;1.65;1.60;;;16.10;67.80;;;;;;4234366;27;20047;-41
2021/03/03 11:34:51;;;;;;;0.45;0.45;;;16.10;67.10;;;;;;4233470;27;20056;-41
2021/03/03 11:37:13;;;;;;;14.90;1.65;;;16.20;67.00;;;;;;4247237;27;20534;-41
2021/03/03 11:39:33;;;;;;;0.68;0.68;;;16.20;66.20;;;;;;4234904;27;20051;-41
2021/03/03 11:41:55;;;;;;;1.05;1.05;;;16.30;65.40;;;;;;4232080;28;20056;-41
2021/03/03 11:44:16;;;;;;;15.75;1.17;;;16.40;65.20;;;;;;4234125;27;20114;-42
2021/03/03 11:46:37;;;;;;;2.28;0.70;;;16.40;65.00;;;;;;4221131;28;20051;-41
2021/03/03 11:48:58;;;;;;;;;;;16.40;65.40;;;;;;4232469;28;20086;-42
2021/03/03 11:51:20;;;;;;;2.42;1.85;;;16.40;65.60;;;;;;4231863;28;19924;-42
2021/03/03 11:53:50;;;;;;;2.10;1.30;;;16.30;65.50;;;;;;4235333;27;20571;-41
2021/03/03 11:56:12;;;;;;;0.55;0.55;;;16.30;65.70;;;;;;4216081;28;20052;-41
2021/03/03 11:58:34;;;;;;;1.70;0.75;;;16.20;66.80;;;;;;4231756;28;20135;-41
2021/03/03 12:00:57;;;;;;;4.05;2.65;;;16.20;65.50;;;;;;4214948;28;20068;-41
2021/03/03 12:03:19;;;;;;;;;;;16.20;65.50;;;;;;4215064;28;20052;-43
2021/03/03 12:05:40;;;;;;;0.10;0.10;;;16.20;65.60;;;;;;4228225;28;19920;-41
2021/03/03 12:08:04;;;;;;;0.20;0.20;;;16.20;65.50;;;;;;4216944;28;20066;-41
2021/03/03 12:10:25;;;;;;;2.85;2.58;;;16.20;65.40;;;;;;4231627;28;20118;-42
2021/03/03 12:12:46;;;;;;;0.22;0.22;;;16.20;65.50;;;;;;4231665;28;20104;-41
2021/03/03 12:15:08;;;;;;;1.90;1.90;;;16.20;65.20;;;;;;4231251;28;20062;-41
2021/03/03 12:17:29;;;;;;;0.55;0.55;;;16.10;66.00;;;;;;4231488;28;20489;-42
2021/03/03 12:19:52;;;;;;;1.15;0.95;;;16.10;66.30;;;;;;4231525;28;20075;-42
2021/03/03 12:22:13;;;;;;;2.05;1.83;;;16.10;66.60;;;;;;4231279;28;20086;-41
2021/03/03 12:24:36;;;;;;;0.60;0.60;;;16.00;67.00;;;;;;4231096;28;20078;-42
2021/03/03 12:26:57;;;;;;;4.38;3.17;;;16.10;67.20;;;;;;4246569;27;20131;-41
2021/03/03 12:29:18;;;;;;;0.80;0.80;;;16.10;67.20;;;;;;4248445;27;20150;-45
2021/03/03 12:31:39;;;;;;;0.15;0.15;;;16.20;67.00;;;;;;4248412;27;20424;-42